sensor_id;sensor_type;location;lat;lon;timestamp;P1;durP1;ratioP1;P2;durP2;ratioP2
3050;SDS011;1535;51.098;6.414;2024-03-02T00:02:06;13.00;;;12.60;;
3050;SDS011;1535;51.098;6.414;2024-03-02T00:04:38;13.27;;;12.87;;
3050;SDS011;1535;51.098;6.414;2024-03-02T00:07:06;13.03;;;12.63;;
3050;SDS011;1535;51.098;6.414;2024-03-02T00:09:41;13.27;;;12.87;;
3050;SDS011;1535;51.098;6.414;2024-03-02T00:12:10;12.93;;;12.53;;
3050;SDS011;1535;51.098;6.414;2024-03-02T00:14:40;12.83;;;12.50;;
3050;SDS011;1535;51.098;6.414;2024-03-02T00:17:11;13.90;;;13.50;;
3050;SDS011;1535;51.098;6.414;2024-03-02T00:19:45;13.37;;;12.97;;
3050;SDS011;1535;51.098;6.414;2024-03-02T00:22:12;13.07;;;12.67;;
3050;SDS011;1535;51.098;6.414;2024-03-02T00:24:39;12.87;;;12.47;;
3050;SDS011;1535;51.098;6.414;2024-03-02T00:27:06;12.60;;;12.30;;
3050;SDS011;1535;51.098;6.414;2024-03-02T00:29:36;13.57;;;13.17;;
3050;SDS011;1535;51.098;6.414;2024-03-02T00:32:04;13.27;;;12.87;;
3050;SDS011;1535;51.098;6.414;2024-03-02T00:34:35;13.87;;;13.47;;
3050;SDS011;1535;51.098;6.414;2024-03-02T00:37:02;13.10;;;12.70;;
3050;SDS011;1535;51.098;6.414;2024-03-02T00:39:29;13.50;;;13.10;;
3050;SDS011;1535;51.098;6.414;2024-03-02T00:41:56;12.73;;;12.43;;
3050;SDS011;1535;51.098;6.414;2024-03-02T00:44:23;13.07;;;12.67;;
3050;SDS011;1535;51.098;6.414;2024-03-02T00:46:54;12.60;;;12.30;;
3050;SDS011;1535;51.098;6.414;2024-03-02T00:49:23;13.13;;;12.73;;
3050;SDS011;1535;51.098;6.414;2024-03-02T00:51:51;12.53;;;12.23;;
3050;SDS011;1535;51.098;6.414;2024-03-02T00:54:19;13.00;;;12.60;;
3050;SDS011;1535;51.098;6.414;2024-03-02T00:56:48;12.47;;;12.17;;
3050;SDS011;1535;51.098;6.414;2024-03-02T00:59:15;13.47;;;13.07;;
3050;SDS011;1535;51.098;6.414;2024-03-02T01:01:43;12.80;;;12.50;;
3050;SDS011;1535;51.098;6.414;2024-03-02T01:04:10;13.10;;;12.70;;
3050;SDS011;1535;51.098;6.414;2024-03-02T01:06:40;12.43;;;12.13;;
3050;SDS011;1535;51.098;6.414;2024-03-02T01:09:07;12.60;;;12.30;;
3050;SDS011;1535;51.098;6.414;2024-03-02T01:11:34;13.17;;;12.77;;
3050;SDS011;1535;51.098;6.414;2024-03-02T01:14:01;13.00;;;12.60;;
3050;SDS011;1535;51.098;6.414;2024-03-02T01:16:29;13.13;;;12.73;;
3050;SDS011;1535;51.098;6.414;2024-03-02T01:18:56;13.27;;;12.87;;
3050;SDS011;1535;51.098;6.414;2024-03-02T01:21:23;13.20;;;12.80;;
3050;SDS011;1535;51.098;6.414;2024-03-02T01:23:52;13.07;;;12.67;;
3050;SDS011;1535;51.098;6.414;2024-03-02T01:26:19;12.67;;;12.33;;
3050;SDS011;1535;51.098;6.414;2024-03-02T01:28:46;13.00;;;12.60;;
3050;SDS011;1535;51.098;6.414;2024-03-02T01:31:13;13.00;;;12.60;;
3050;SDS011;1535;51.098;6.414;2024-03-02T01:33:41;13.00;;;12.60;;
3050;SDS011;1535;51.098;6.414;2024-03-02T01:36:08;12.80;;;12.47;;
3050;SDS011;1535;51.098;6.414;2024-03-02T01:38:35;13.20;;;12.80;;
3050;SDS011;1535;51.098;6.414;2024-03-02T01:41:03;12.40;;;12.10;;
3050;SDS011;1535;51.098;6.414;2024-03-02T01:43:31;13.10;;;12.70;;
3050;SDS011;1535;51.098;6.414;2024-03-02T01:45:58;12.57;;;12.27;;
3050;SDS011;1535;51.098;6.414;2024-03-02T01:48:25;13.10;;;12.70;;
3050;SDS011;1535;51.098;6.414;2024-03-02T01:50:52;13.20;;;12.80;;
3050;SDS011;1535;51.098;6.414;2024-03-02T01:53:19;12.90;;;12.50;;
3050;SDS011;1535;51.098;6.414;2024-03-02T01:55:47;12.60;;;12.30;;
3050;SDS011;1535;51.098;6.414;2024-03-02T01:58:15;13.17;;;12.77;;
3050;SDS011;1535;51.098;6.414;2024-03-02T02:00:43;13.00;;;12.60;;
3050;SDS011;1535;51.098;6.414;2024-03-02T02:03:10;12.30;;;12.00;;
3050;SDS011;1535;51.098;6.414;2024-03-02T02:05:38;12.87;;;12.53;;
3050;SDS011;1535;51.098;6.414;2024-03-02T02:08:05;12.83;;;12.50;;
3050;SDS011;1535;51.098;6.414;2024-03-02T02:10:32;13.20;;;12.80;;
3050;SDS011;1535;51.098;6.414;2024-03-02T02:12:59;13.20;;;12.80;;
3050;SDS011;1535;51.098;6.414;2024-03-02T02:15:29;13.70;;;13.30;;
3050;SDS011;1535;51.098;6.414;2024-03-02T02:20:39;12.40;;;12.10;;
3050;SDS011;1535;51.098;6.414;2024-03-02T02:23:07;12.97;;;12.60;;
3050;SDS011;1535;51.098;6.414;2024-03-02T02:25:35;12.67;;;12.37;;
3050;SDS011;1535;51.098;6.414;2024-03-02T02:28:02;12.63;;;12.33;;
3050;SDS011;1535;51.098;6.414;2024-03-02T02:30:30;12.03;;;11.73;;
3050;SDS011;1535;51.098;6.414;2024-03-02T02:32:58;12.50;;;12.20;;
3050;SDS011;1535;51.098;6.414;2024-03-02T02:35:25;12.90;;;12.60;;
3050;SDS011;1535;51.098;6.414;2024-03-02T02:37:53;12.40;;;12.10;;
3050;SDS011;1535;51.098;6.414;2024-03-02T02:40:22;12.33;;;12.03;;
3050;SDS011;1535;51.098;6.414;2024-03-02T02:42:49;11.80;;;11.50;;
3050;SDS011;1535;51.098;6.414;2024-03-02T02:45:17;11.87;;;11.57;;
3050;SDS011;1535;51.098;6.414;2024-03-02T02:47:43;11.40;;;11.10;;
3050;SDS011;1535;51.098;6.414;2024-03-02T02:50:11;10.63;;;10.43;;
3050;SDS011;1535;51.098;6.414;2024-03-02T02:52:39;10.53;;;10.33;;
3050;SDS011;1535;51.098;6.414;2024-03-02T02:55:07;10.27;;;10.07;;
3050;SDS011;1535;51.098;6.414;2024-03-02T02:57:36;10.60;;;10.40;;
3050;SDS011;1535;51.098;6.414;2024-03-02T03:00:05;10.90;;;10.63;;
3050;SDS011;1535;51.098;6.414;2024-03-02T03:02:35;10.50;;;10.30;;
3050;SDS011;1535;51.098;6.414;2024-03-02T03:05:02;11.10;;;10.80;;
3050;SDS011;1535;51.098;6.414;2024-03-02T03:07:30;11.03;;;10.73;;
3050;SDS011;1535;51.098;6.414;2024-03-02T03:09:57;10.00;;;9.80;;
3050;SDS011;1535;51.098;6.414;2024-03-02T03:12:24;10.67;;;10.47;;
3050;SDS011;1535;51.098;6.414;2024-03-02T03:14:53;10.57;;;10.37;;
3050;SDS011;1535;51.098;6.414;2024-03-02T03:17:20;11.13;;;10.83;;
3050;SDS011;1535;51.098;6.414;2024-03-02T03:19:48;10.40;;;10.20;;
3050;SDS011;1535;51.098;6.414;2024-03-02T03:22:15;10.93;;;10.70;;
3050;SDS011;1535;51.098;6.414;2024-03-02T03:24:42;11.37;;;11.07;;
3050;SDS011;1535;51.098;6.414;2024-03-02T03:27:10;10.17;;;9.97;;
3050;SDS011;1535;51.098;6.414;2024-03-02T03:29:37;10.37;;;10.17;;
3050;SDS011;1535;51.098;6.414;2024-03-02T03:32:06;10.60;;;10.40;;
3050;SDS011;1535;51.098;6.414;2024-03-02T03:34:33;10.80;;;10.60;;
3050;SDS011;1535;51.098;6.414;2024-03-02T03:37:00;11.23;;;10.93;;
3050;SDS011;1535;51.098;6.414;2024-03-02T03:39:27;10.77;;;10.57;;
3050;SDS011;1535;51.098;6.414;2024-03-02T03:41:55;11.17;;;10.87;;
3050;SDS011;1535;51.098;6.414;2024-03-02T03:44:22;10.70;;;10.50;;
3050;SDS011;1535;51.098;6.414;2024-03-02T03:46:49;11.00;;;10.70;;
3050;SDS011;1535;51.098;6.414;2024-03-02T03:49:17;11.50;;;11.20;;
3050;SDS011;1535;51.098;6.414;2024-03-02T03:51:45;11.77;;;11.47;;
3050;SDS011;1535;51.098;6.414;2024-03-02T03:54:12;11.27;;;10.97;;
3050;SDS011;1535;51.098;6.414;2024-03-02T03:56:39;10.90;;;10.63;;
3050;SDS011;1535;51.098;6.414;2024-03-02T03:59:06;10.97;;;10.67;;
3050;SDS011;1535;51.098;6.414;2024-03-02T04:01:33;10.97;;;10.67;;
3050;SDS011;1535;51.098;6.414;2024-03-02T04:04:00;11.20;;;10.90;;
3050;SDS011;1535;51.098;6.414;2024-03-02T04:06:30;10.97;;;10.67;;
3050;SDS011;1535;51.098;6.414;2024-03-02T04:08:57;10.70;;;10.50;;
3050;SDS011;1535;51.098;6.414;2024-03-02T04:11:25;10.50;;;10.30;;
3050;SDS011;1535;51.098;6.414;2024-03-02T04:13:52;11.27;;;10.97;;
3050;SDS011;1535;51.098;6.414;2024-03-02T04:16:19;11.00;;;10.70;;
3050;SDS011;1535;51.098;6.414;2024-03-02T04:18:46;11.30;;;11.00;;
3050;SDS011;1535;51.098;6.414;2024-03-02T04:21:13;11.33;;;11.03;;
3050;SDS011;1535;51.098;6.414;2024-03-02T04:23:42;11.13;;;10.83;;
3050;SDS011;1535;51.098;6.414;2024-03-02T04:26:09;11.13;;;10.83;;
3050;SDS011;1535;51.098;6.414;2024-03-02T04:28:36;10.50;;;10.30;;
3050;SDS011;1535;51.098;6.414;2024-03-02T04:31:03;11.23;;;10.93;;
3050;SDS011;1535;51.098;6.414;2024-03-02T04:33:30;11.10;;;10.80;;
3050;SDS011;1535;51.098;6.414;2024-03-02T04:35:57;11.77;;;11.47;;
3050;SDS011;1535;51.098;6.414;2024-03-02T04:38:24;11.60;;;11.30;;
3050;SDS011;1535;51.098;6.414;2024-03-02T04:40:55;11.53;;;11.23;;
3050;SDS011;1535;51.098;6.414;2024-03-02T04:43:22;11.43;;;11.13;;
3050;SDS011;1535;51.098;6.414;2024-03-02T04:45:49;11.63;;;11.33;;
3050;SDS011;1535;51.098;6.414;2024-03-02T04:48:16;11.80;;;11.50;;
3050;SDS011;1535;51.098;6.414;2024-03-02T04:50:45;11.80;;;11.50;;
3050;SDS011;1535;51.098;6.414;2024-03-02T04:53:12;11.93;;;11.63;;
3050;SDS011;1535;51.098;6.414;2024-03-02T04:55:39;12.00;;;11.70;;
3050;SDS011;1535;51.098;6.414;2024-03-02T04:58:36;12.27;;;11.97;;
3050;SDS011;1535;51.098;6.414;2024-03-02T05:01:03;12.13;;;11.83;;
3050;SDS011;1535;51.098;6.414;2024-03-02T05:03:31;12.33;;;12.03;;
3050;SDS011;1535;51.098;6.414;2024-03-02T05:06:00;12.40;;;12.10;;
3050;SDS011;1535;51.098;6.414;2024-03-02T05:08:27;12.50;;;12.20;;
3050;SDS011;1535;51.098;6.414;2024-03-02T05:10:54;12.60;;;12.30;;
3050;SDS011;1535;51.098;6.414;2024-03-02T05:13:43;12.63;;;12.30;;
3050;SDS011;1535;51.098;6.414;2024-03-02T05:16:09;12.65;;;12.30;;
3050;SDS011;1535;51.098;6.414;2024-03-02T05:18:37;12.50;;;12.20;;
3050;SDS011;1535;51.098;6.414;2024-03-02T05:21:04;12.77;;;12.37;;
3050;SDS011;1535;51.098;6.414;2024-03-02T05:23:31;13.10;;;12.70;;
3050;SDS011;1535;51.098;6.414;2024-03-02T05:25:58;13.20;;;12.80;;
3050;SDS011;1535;51.098;6.414;2024-03-02T05:28:25;13.00;;;12.60;;
3050;SDS011;1535;51.098;6.414;2024-03-02T05:30:54;13.53;;;13.13;;
3050;SDS011;1535;51.098;6.414;2024-03-02T05:33:21;12.80;;;12.40;;
3050;SDS011;1535;51.098;6.414;2024-03-02T05:35:48;12.37;;;12.07;;
3050;SDS011;1535;51.098;6.414;2024-03-02T05:38:15;12.43;;;12.13;;
3050;SDS011;1535;51.098;6.414;2024-03-02T05:40:43;12.60;;;12.30;;
3050;SDS011;1535;51.098;6.414;2024-03-02T05:43:10;13.10;;;12.70;;
3050;SDS011;1535;51.098;6.414;2024-03-02T05:45:37;13.03;;;12.63;;
3050;SDS011;1535;51.098;6.414;2024-03-02T05:48:06;12.83;;;12.43;;
3050;SDS011;1535;51.098;6.414;2024-03-02T05:50:34;12.83;;;12.43;;
3050;SDS011;1535;51.098;6.414;2024-03-02T05:53:01;12.80;;;12.40;;
3050;SDS011;1535;51.098;6.414;2024-03-02T05:55:29;13.03;;;12.63;;
3050;SDS011;1535;51.098;6.414;2024-03-02T05:57:56;13.17;;;12.77;;
3050;SDS011;1535;51.098;6.414;2024-03-02T06:00:40;12.50;;;12.20;;
3050;SDS011;1535;51.098;6.414;2024-03-02T06:03:09;13.00;;;12.60;;
3050;SDS011;1535;51.098;6.414;2024-03-02T06:05:36;12.90;;;12.50;;
3050;SDS011;1535;51.098;6.414;2024-03-02T06:08:04;12.97;;;12.57;;
3050;SDS011;1535;51.098;6.414;2024-03-02T06:10:31;13.00;;;12.60;;
3050;SDS011;1535;51.098;6.414;2024-03-02T06:12:58;12.87;;;12.47;;
3050;SDS011;1535;51.098;6.414;2024-03-02T06:15:25;12.87;;;12.47;;
3050;SDS011;1535;51.098;6.414;2024-03-02T06:17:52;12.67;;;12.27;;
3050;SDS011;1535;51.098;6.414;2024-03-02T06:20:21;13.20;;;12.80;;
3050;SDS011;1535;51.098;6.414;2024-03-02T06:22:48;13.00;;;12.60;;
3050;SDS011;1535;51.098;6.414;2024-03-02T06:25:15;12.80;;;12.40;;
3050;SDS011;1535;51.098;6.414;2024-03-02T06:27:42;12.83;;;12.43;;
3050;SDS011;1535;51.098;6.414;2024-03-02T06:30:10;12.83;;;12.43;;
3050;SDS011;1535;51.098;6.414;2024-03-02T06:32:37;12.87;;;12.47;;
3050;SDS011;1535;51.098;6.414;2024-03-02T06:35:04;12.57;;;12.23;;
3050;SDS011;1535;51.098;6.414;2024-03-02T06:37:36;12.93;;;12.53;;
3050;SDS011;1535;51.098;6.414;2024-03-02T06:40:05;12.43;;;12.13;;
3050;SDS011;1535;51.098;6.414;2024-03-02T06:42:32;12.43;;;12.13;;
3050;SDS011;1535;51.098;6.414;2024-03-02T06:45:00;12.47;;;12.17;;
3050;SDS011;1535;51.098;6.414;2024-03-02T06:47:27;12.87;;;12.47;;
3050;SDS011;1535;51.098;6.414;2024-03-02T06:49:54;12.20;;;11.90;;
3050;SDS011;1535;51.098;6.414;2024-03-02T06:52:22;12.40;;;12.10;;
3050;SDS011;1535;51.098;6.414;2024-03-02T06:54:51;12.77;;;12.37;;
3050;SDS011;1535;51.098;6.414;2024-03-02T06:57:18;12.70;;;12.30;;
3050;SDS011;1535;51.098;6.414;2024-03-02T06:59:45;12.47;;;12.17;;
3050;SDS011;1535;51.098;6.414;2024-03-02T07:02:15;12.43;;;12.13;;
3050;SDS011;1535;51.098;6.414;2024-03-02T07:04:42;13.33;;;12.93;;
3050;SDS011;1535;51.098;6.414;2024-03-02T07:07:10;13.53;;;13.13;;
3050;SDS011;1535;51.098;6.414;2024-03-02T07:09:37;13.17;;;12.77;;
3050;SDS011;1535;51.098;6.414;2024-03-02T07:12:06;12.73;;;12.33;;
3050;SDS011;1535;51.098;6.414;2024-03-02T07:14:34;12.33;;;12.03;;
3050;SDS011;1535;51.098;6.414;2024-03-02T07:17:19;12.13;;;11.83;;
3050;SDS011;1535;51.098;6.414;2024-03-02T07:19:46;12.90;;;12.50;;
3050;SDS011;1535;51.098;6.414;2024-03-02T07:22:13;12.60;;;12.30;;
3050;SDS011;1535;51.098;6.414;2024-03-02T07:24:40;12.70;;;12.30;;
3050;SDS011;1535;51.098;6.414;2024-03-02T07:27:09;12.80;;;12.40;;
3050;SDS011;1535;51.098;6.414;2024-03-02T07:29:37;12.50;;;12.20;;
3050;SDS011;1535;51.098;6.414;2024-03-02T07:32:05;12.47;;;12.17;;
3050;SDS011;1535;51.098;6.414;2024-03-02T07:34:32;12.90;;;12.50;;
3050;SDS011;1535;51.098;6.414;2024-03-02T07:36:59;12.80;;;12.40;;
3050;SDS011;1535;51.098;6.414;2024-03-02T07:39:26;12.60;;;12.27;;
3050;SDS011;1535;51.098;6.414;2024-03-02T07:41:54;12.63;;;12.23;;
3050;SDS011;1535;51.098;6.414;2024-03-02T07:44:23;13.17;;;12.77;;
3050;SDS011;1535;51.098;6.414;2024-03-02T07:46:50;12.97;;;12.57;;
3050;SDS011;1535;51.098;6.414;2024-03-02T07:49:17;13.00;;;12.60;;
3050;SDS011;1535;51.098;6.414;2024-03-02T07:51:45;12.93;;;12.53;;
3050;SDS011;1535;51.098;6.414;2024-03-02T07:54:12;12.50;;;12.10;;
3050;SDS011;1535;51.098;6.414;2024-03-02T07:56:39;12.90;;;12.50;;
3050;SDS011;1535;51.098;6.414;2024-03-02T07:59:06;12.90;;;12.50;;
3050;SDS011;1535;51.098;6.414;2024-03-02T08:01:35;13.20;;;12.80;;
3050;SDS011;1535;51.098;6.414;2024-03-02T08:04:02;13.20;;;12.80;;
3050;SDS011;1535;51.098;6.414;2024-03-02T08:06:29;12.97;;;12.57;;
3050;SDS011;1535;51.098;6.414;2024-03-02T08:08:58;13.20;;;12.80;;
3050;SDS011;1535;51.098;6.414;2024-03-02T08:11:25;13.30;;;12.90;;
3050;SDS011;1535;51.098;6.414;2024-03-02T08:13:54;13.60;;;13.20;;
3050;SDS011;1535;51.098;6.414;2024-03-02T08:16:21;12.90;;;12.50;;
3050;SDS011;1535;51.098;6.414;2024-03-02T08:18:51;13.10;;;12.70;;
3050;SDS011;1535;51.098;6.414;2024-03-02T08:21:18;13.83;;;13.33;;
3050;SDS011;1535;51.098;6.414;2024-03-02T08:23:46;13.37;;;12.97;;
3050;SDS011;1535;51.098;6.414;2024-03-02T08:26:13;14.13;;;13.63;;
3050;SDS011;1535;51.098;6.414;2024-03-02T08:28:40;14.30;;;13.80;;
3050;SDS011;1535;51.098;6.414;2024-03-02T08:31:07;14.33;;;13.83;;
3050;SDS011;1535;51.098;6.414;2024-03-02T08:33:34;14.00;;;13.50;;
3050;SDS011;1535;51.098;6.414;2024-03-02T08:36:04;13.93;;;13.43;;
3050;SDS011;1535;51.098;6.414;2024-03-02T08:38:31;13.63;;;13.23;;
3050;SDS011;1535;51.098;6.414;2024-03-02T08:40:58;14.00;;;13.50;;
3050;SDS011;1535;51.098;6.414;2024-03-02T08:43:25;14.23;;;13.73;;
3050;SDS011;1535;51.098;6.414;2024-03-02T08:45:52;14.10;;;13.60;;
3050;SDS011;1535;51.098;6.414;2024-03-02T08:48:20;14.17;;;13.67;;
3050;SDS011;1535;51.098;6.414;2024-03-02T08:50:47;13.77;;;13.33;;
3050;SDS011;1535;51.098;6.414;2024-03-02T08:53:16;13.33;;;12.93;;
3050;SDS011;1535;51.098;6.414;2024-03-02T08:55:44;13.93;;;13.47;;
3050;SDS011;1535;51.098;6.414;2024-03-02T08:58:11;13.80;;;13.40;;
3050;SDS011;1535;51.098;6.414;2024-03-02T09:00:38;14.10;;;13.60;;
3050;SDS011;1535;51.098;6.414;2024-03-02T09:03:06;14.33;;;13.83;;
3050;SDS011;1535;51.098;6.414;2024-03-02T09:05:34;13.73;;;13.33;;
3050;SDS011;1535;51.098;6.414;2024-03-02T09:08:01;13.50;;;13.10;;
3050;SDS011;1535;51.098;6.414;2024-03-02T09:10:30;13.77;;;13.37;;
3050;SDS011;1535;51.098;6.414;2024-03-02T09:12:58;13.83;;;13.43;;
3050;SDS011;1535;51.098;6.414;2024-03-02T09:15:25;13.80;;;13.40;;
3050;SDS011;1535;51.098;6.414;2024-03-02T09:17:53;13.57;;;13.17;;
3050;SDS011;1535;51.098;6.414;2024-03-02T09:20:20;13.23;;;12.83;;
3050;SDS011;1535;51.098;6.414;2024-03-02T09:22:47;13.33;;;12.93;;
3050;SDS011;1535;51.098;6.414;2024-03-02T09:25:15;13.33;;;12.93;;
3050;SDS011;1535;51.098;6.414;2024-03-02T09:27:43;13.40;;;13.00;;
3050;SDS011;1535;51.098;6.414;2024-03-02T09:30:10;12.60;;;12.30;;
3050;SDS011;1535;51.098;6.414;2024-03-02T09:32:38;13.30;;;12.90;;
3050;SDS011;1535;51.098;6.414;2024-03-02T09:35:06;13.30;;;12.90;;
3050;SDS011;1535;51.098;6.414;2024-03-02T09:37:34;13.77;;;13.37;;
3050;SDS011;1535;51.098;6.414;2024-03-02T09:40:02;13.77;;;13.37;;
3050;SDS011;1535;51.098;6.414;2024-03-02T09:42:29;13.00;;;12.60;;
3050;SDS011;1535;51.098;6.414;2024-03-02T09:44:59;13.63;;;13.23;;
3050;SDS011;1535;51.098;6.414;2024-03-02T09:47:26;13.03;;;12.63;;
3050;SDS011;1535;51.098;6.414;2024-03-02T09:49:54;12.90;;;12.50;;
3050;SDS011;1535;51.098;6.414;2024-03-02T09:52:22;13.27;;;12.87;;
3050;SDS011;1535;51.098;6.414;2024-03-02T09:54:50;13.37;;;12.97;;
3050;SDS011;1535;51.098;6.414;2024-03-02T09:57:17;13.10;;;12.70;;
3050;SDS011;1535;51.098;6.414;2024-03-02T09:59:44;13.23;;;12.83;;
3050;SDS011;1535;51.098;6.414;2024-03-02T10:02:13;13.30;;;12.90;;
3050;SDS011;1535;51.098;6.414;2024-03-02T10:04:40;13.47;;;13.07;;
3050;SDS011;1535;51.098;6.414;2024-03-02T10:07:10;13.00;;;12.60;;
3050;SDS011;1535;51.098;6.414;2024-03-02T10:09:37;13.20;;;12.80;;
3050;SDS011;1535;51.098;6.414;2024-03-02T10:12:04;13.40;;;13.00;;
3050;SDS011;1535;51.098;6.414;2024-03-02T10:14:33;13.40;;;13.00;;
3050;SDS011;1535;51.098;6.414;2024-03-02T10:17:01;13.20;;;12.80;;
3050;SDS011;1535;51.098;6.414;2024-03-02T10:19:30;14.00;;;13.50;;
3050;SDS011;1535;51.098;6.414;2024-03-02T10:21:58;14.73;;;14.23;;
3050;SDS011;1535;51.098;6.414;2024-03-02T10:24:25;14.70;;;14.20;;
3050;SDS011;1535;51.098;6.414;2024-03-02T10:26:53;13.73;;;13.33;;
3050;SDS011;1535;51.098;6.414;2024-03-02T10:29:21;13.70;;;13.30;;
3050;SDS011;1535;51.098;6.414;2024-03-02T10:31:48;13.97;;;13.53;;
3050;SDS011;1535;51.098;6.414;2024-03-02T10:34:15;13.83;;;13.43;;
3050;SDS011;1535;51.098;6.414;2024-03-02T10:36:44;14.00;;;13.60;;
3050;SDS011;1535;51.098;6.414;2024-03-02T10:39:11;14.40;;;13.90;;
3050;SDS011;1535;51.098;6.414;2024-03-02T10:41:39;13.90;;;13.50;;
3050;SDS011;1535;51.098;6.414;2024-03-02T10:44:07;13.90;;;13.50;;
3050;SDS011;1535;51.098;6.414;2024-03-02T10:46:35;13.80;;;13.40;;
3050;SDS011;1535;51.098;6.414;2024-03-02T10:49:03;13.80;;;13.40;;
3050;SDS011;1535;51.098;6.414;2024-03-02T10:51:31;13.97;;;13.57;;
3050;SDS011;1535;51.098;6.414;2024-03-02T10:54:00;14.00;;;13.60;;
3050;SDS011;1535;51.098;6.414;2024-03-02T10:56:28;13.90;;;13.50;;
3050;SDS011;1535;51.098;6.414;2024-03-02T10:58:59;13.80;;;13.40;;
3050;SDS011;1535;51.098;6.414;2024-03-02T11:01:29;13.93;;;13.53;;
3050;SDS011;1535;51.098;6.414;2024-03-02T11:03:56;14.53;;;14.03;;
3050;SDS011;1535;51.098;6.414;2024-03-02T11:06:24;13.87;;;13.47;;
3050;SDS011;1535;51.098;6.414;2024-03-02T11:08:52;14.70;;;14.20;;
3050;SDS011;1535;51.098;6.414;2024-03-02T11:11:26;14.73;;;14.23;;
3050;SDS011;1535;51.098;6.414;2024-03-02T11:13:55;14.00;;;13.60;;
3050;SDS011;1535;51.098;6.414;2024-03-02T11:16:26;13.80;;;13.40;;
3050;SDS011;1535;51.098;6.414;2024-03-02T11:18:55;14.80;;;14.30;;
3050;SDS011;1535;51.098;6.414;2024-03-02T11:21:23;13.83;;;13.43;;
3050;SDS011;1535;51.098;6.414;2024-03-02T11:23:51;13.80;;;13.40;;
3050;SDS011;1535;51.098;6.414;2024-03-02T11:26:18;14.20;;;13.70;;
3050;SDS011;1535;51.098;6.414;2024-03-02T11:28:47;14.50;;;14.00;;
3050;SDS011;1535;51.098;6.414;2024-03-02T11:31:14;15.10;;;14.60;;
3050;SDS011;1535;51.098;6.414;2024-03-02T11:33:42;14.60;;;14.10;;
3050;SDS011;1535;51.098;6.414;2024-03-02T11:36:09;14.97;;;14.47;;
3050;SDS011;1535;51.098;6.414;2024-03-02T11:38:36;15.30;;;14.80;;
3050;SDS011;1535;51.098;6.414;2024-03-02T11:41:05;15.10;;;14.60;;
3050;SDS011;1535;51.098;6.414;2024-03-02T11:43:33;15.57;;;15.07;;
3050;SDS011;1535;51.098;6.414;2024-03-02T11:46:06;15.43;;;14.93;;
3050;SDS011;1535;51.098;6.414;2024-03-02T11:48:34;15.50;;;14.90;;
3050;SDS011;1535;51.098;6.414;2024-03-02T11:51:02;15.57;;;14.97;;
3050;SDS011;1535;51.098;6.414;2024-03-02T11:53:30;15.73;;;15.13;;
3050;SDS011;1535;51.098;6.414;2024-03-02T11:55:58;16.20;;;15.60;;
3050;SDS011;1535;51.098;6.414;2024-03-02T11:58:26;16.10;;;15.50;;
3050;SDS011;1535;51.098;6.414;2024-03-02T12:00:54;15.70;;;15.10;;
3050;SDS011;1535;51.098;6.414;2024-03-02T12:03:23;16.00;;;15.40;;
3050;SDS011;1535;51.098;6.414;2024-03-02T12:05:52;15.67;;;15.17;;
3050;SDS011;1535;51.098;6.414;2024-03-02T12:08:19;16.33;;;15.73;;
3050;SDS011;1535;51.098;6.414;2024-03-02T12:10:57;16.77;;;16.17;;
3050;SDS011;1535;51.098;6.414;2024-03-02T12:13:26;15.90;;;15.30;;
3050;SDS011;1535;51.098;6.414;2024-03-02T12:15:53;15.60;;;15.10;;
3050;SDS011;1535;51.098;6.414;2024-03-02T12:18:22;14.87;;;14.37;;
3050;SDS011;1535;51.098;6.414;2024-03-02T12:20:50;15.07;;;14.57;;
3050;SDS011;1535;51.098;6.414;2024-03-02T12:23:22;14.90;;;14.40;;
3050;SDS011;1535;51.098;6.414;2024-03-02T12:25:49;14.77;;;14.27;;
3050;SDS011;1535;51.098;6.414;2024-03-02T12:28:17;15.80;;;15.20;;
3050;SDS011;1535;51.098;6.414;2024-03-02T12:30:44;15.07;;;14.57;;
3050;SDS011;1535;51.098;6.414;2024-03-02T12:33:12;14.80;;;14.30;;
3050;SDS011;1535;51.098;6.414;2024-03-02T12:35:41;15.00;;;14.50;;
3050;SDS011;1535;51.098;6.414;2024-03-02T12:38:08;15.50;;;15.00;;
3050;SDS011;1535;51.098;6.414;2024-03-02T12:40:37;15.27;;;14.77;;
3050;SDS011;1535;51.098;6.414;2024-03-02T12:43:05;15.17;;;14.67;;
3050;SDS011;1535;51.098;6.414;2024-03-02T12:45:33;15.37;;;14.87;;
3050;SDS011;1535;51.098;6.414;2024-03-02T12:48:00;15.87;;;15.27;;
3050;SDS011;1535;51.098;6.414;2024-03-02T12:50:28;15.13;;;14.63;;
3050;SDS011;1535;51.098;6.414;2024-03-02T12:52:57;15.30;;;14.80;;
3050;SDS011;1535;51.098;6.414;2024-03-02T12:55:24;15.60;;;15.10;;
3050;SDS011;1535;51.098;6.414;2024-03-02T12:57:52;15.20;;;14.70;;
3050;SDS011;1535;51.098;6.414;2024-03-02T13:00:20;15.57;;;15.07;;
3050;SDS011;1535;51.098;6.414;2024-03-02T13:02:47;15.37;;;14.87;;
3050;SDS011;1535;51.098;6.414;2024-03-02T13:05:15;14.80;;;14.30;;
3050;SDS011;1535;51.098;6.414;2024-03-02T13:07:42;15.20;;;14.70;;
3050;SDS011;1535;51.098;6.414;2024-03-02T13:10:13;14.60;;;14.10;;
3050;SDS011;1535;51.098;6.414;2024-03-02T13:12:40;15.90;;;15.37;;
3050;SDS011;1535;51.098;6.414;2024-03-02T13:15:08;15.90;;;15.40;;
3050;SDS011;1535;51.098;6.414;2024-03-02T13:17:35;15.50;;;15.00;;
3050;SDS011;1535;51.098;6.414;2024-03-02T13:20:02;15.20;;;14.70;;
3050;SDS011;1535;51.098;6.414;2024-03-02T13:22:33;14.70;;;14.20;;
3050;SDS011;1535;51.098;6.414;2024-03-02T13:25:00;15.20;;;14.70;;
3050;SDS011;1535;51.098;6.414;2024-03-02T13:27:30;15.00;;;14.50;;
3050;SDS011;1535;51.098;6.414;2024-03-02T13:29:57;14.60;;;14.10;;
3050;SDS011;1535;51.098;6.414;2024-03-02T13:32:24;14.60;;;14.10;;
3050;SDS011;1535;51.098;6.414;2024-03-02T13:34:52;15.20;;;14.70;;
3050;SDS011;1535;51.098;6.414;2024-03-02T13:37:19;14.97;;;14.47;;
3050;SDS011;1535;51.098;6.414;2024-03-02T13:39:47;15.00;;;14.50;;
3050;SDS011;1535;51.098;6.414;2024-03-02T13:42:14;15.40;;;14.90;;
3050;SDS011;1535;51.098;6.414;2024-03-02T13:44:44;14.97;;;14.47;;
3050;SDS011;1535;51.098;6.414;2024-03-02T13:47:13;15.07;;;14.57;;
3050;SDS011;1535;51.098;6.414;2024-03-02T13:49:40;15.47;;;14.97;;
3050;SDS011;1535;51.098;6.414;2024-03-02T13:52:10;14.90;;;14.40;;
3050;SDS011;1535;51.098;6.414;2024-03-02T13:54:38;14.93;;;14.43;;
3050;SDS011;1535;51.098;6.414;2024-03-02T13:57:05;15.93;;;15.33;;
3050;SDS011;1535;51.098;6.414;2024-03-02T13:59:33;16.00;;;15.40;;
3050;SDS011;1535;51.098;6.414;2024-03-02T14:02:01;15.63;;;15.13;;
3050;SDS011;1535;51.098;6.414;2024-03-02T14:04:30;15.30;;;14.80;;
3050;SDS011;1535;51.098;6.414;2024-03-02T14:06:58;16.10;;;15.50;;
3050;SDS011;1535;51.098;6.414;2024-03-02T14:09:25;16.17;;;15.57;;
3050;SDS011;1535;51.098;6.414;2024-03-02T14:11:53;16.13;;;15.53;;
3050;SDS011;1535;51.098;6.414;2024-03-02T14:14:20;15.57;;;15.07;;
3050;SDS011;1535;51.098;6.414;2024-03-02T14:16:47;15.13;;;14.63;;
3050;SDS011;1535;51.098;6.414;2024-03-02T14:19:16;15.00;;;14.50;;
3050;SDS011;1535;51.098;6.414;2024-03-02T14:21:44;15.63;;;15.13;;
3050;SDS011;1535;51.098;6.414;2024-03-02T14:24:12;14.93;;;14.43;;
3050;SDS011;1535;51.098;6.414;2024-03-02T14:26:39;14.70;;;14.20;;
3050;SDS011;1535;51.098;6.414;2024-03-02T14:29:08;14.57;;;14.07;;
3050;SDS011;1535;51.098;6.414;2024-03-02T14:31:36;14.70;;;14.20;;
3050;SDS011;1535;51.098;6.414;2024-03-02T14:34:03;15.20;;;14.70;;
3050;SDS011;1535;51.098;6.414;2024-03-02T14:36:32;15.30;;;14.80;;
3050;SDS011;1535;51.098;6.414;2024-03-02T14:38:59;14.60;;;14.10;;
3050;SDS011;1535;51.098;6.414;2024-03-02T14:41:27;14.93;;;14.43;;
3050;SDS011;1535;51.098;6.414;2024-03-02T14:43:54;14.90;;;14.40;;
3050;SDS011;1535;51.098;6.414;2024-03-02T14:46:21;14.80;;;14.30;;
3050;SDS011;1535;51.098;6.414;2024-03-02T14:48:48;14.50;;;14.00;;
3050;SDS011;1535;51.098;6.414;2024-03-02T14:51:15;15.20;;;14.70;;
3050;SDS011;1535;51.098;6.414;2024-03-02T14:53:44;14.67;;;14.17;;
3050;SDS011;1535;51.098;6.414;2024-03-02T14:56:11;14.80;;;14.30;;